Time;durP1;ratioP1;P1;durP2;ratioP2;P2;SDS_P1;SDS_P2;PMS_P1;PMS_P2;Temp;Humidity;BMP_temperature;BMP_pressure;BME280_temperature;BME280_humidity;BME280_pressure;Samples;Min_cycle;Max_cycle;Signal;HPM_P1;HPM_P2
2022/09/28 00:01:52;;;;;;;11.65;10.95;;;;;;;;;;4979768;28;20061;-61
2022/09/28 00:04:17;;;;;;;11.50;10.80;;;;;;;;;;4978671;28;20467;-60
2022/09/28 00:06:43;;;;;;;11.52;10.82;;;;;;;;;;4977874;28;20473;-60
2022/09/28 00:09:09;;;;;;;10.95;10.25;;;;;;;;;;4974522;28;20043;-60
2022/09/28 00:11:34;;;;;;;10.45;9.82;;;;;;;;;;4974553;28;20526;-61
2022/09/28 00:14:02;;;;;;;11.45;10.75;;;;;;;;;;4976670;28;20104;-61
2022/09/28 00:16:40;;;;;;;11.43;10.73;;;;;;;;;;4976300;28;20041;-60
2022/09/28 00:19:05;;;;;;;10.18;9.57;;;;;;;;;;4975413;28;20662;-61
2022/09/28 00:21:33;;;;;;;10.77;10.15;;;;;;;;;;4974828;28;20023;-61
2022/09/28 00:24:14;;;;;;;10.95;10.25;;;;;;;;;;4973176;28;20037;-61
2022/09/28 00:26:45;;;;;;;9.95;9.35;;;;;;;;;;4975006;28;20584;-61
2022/09/28 00:29:30;;;;;;;10.10;9.50;;;;;;;;;;4976443;28;20078;-61
2022/09/28 00:32:08;;;;;;;10.82;10.13;;;;;;;;;;4975048;28;20122;-62
2022/09/28 00:34:36;;;;;;;9.32;8.73;;;;;;;;;;4977408;28;20298;-63
2022/09/28 00:37:04;;;;;;;9.60;9.00;;;;;;;;;;4976275;28;20093;-62
2022/09/28 00:39:34;;;;;;;10.13;9.52;;;;;;;;;;4975435;28;20045;-63
2022/09/28 00:42:00;;;;;;;9.80;9.20;;;;;;;;;;4971408;28;20052;-63
2022/09/28 00:44:25;;;;;;;9.27;8.68;;;;;;;;;;4978612;28;20125;-63
2022/09/28 00:46:56;;;;;;;10.95;9.60;;;;;;;;;;4975196;28;20044;-61
2022/09/28 00:49:27;;;;;;;;;;;;;;;;;;4975721;28;20427;-62
2022/09/28 00:51:52;;;;;;;8.82;8.23;;;;;;;;;;4974293;28;19917;-61
2022/09/28 00:54:18;;;;;;;9.45;8.85;;;;;;;;;;4976063;28;20030;-61
2022/09/28 00:56:46;;;;;;;10.50;9.85;;;;;;;;;;4975285;28;20038;-61
2022/09/28 00:59:13;;;;;;;9.23;8.63;;;;;;;;;;4977122;28;20030;-61
2022/09/28 01:01:38;;;;;;;9.60;9.00;;;;;;;;;;4979110;28;20034;-62
2022/09/28 01:04:05;;;;;;;10.48;9.77;;;;;;;;;;4972309;28;20101;-62
2022/09/28 01:06:33;;;;;;;9.07;8.43;;;;;;;;;;4976577;28;20053;-63
2022/09/28 01:09:02;;;;;;;9.50;8.90;;;;;;;;;;4976410;28;20064;-62
2022/09/28 01:11:30;;;;;;;8.45;7.95;;;;;;;;;;4975401;28;20092;-63
2022/09/28 01:13:56;;;;;;;9.23;8.57;;;;;;;;;;4975756;28;20045;-63
2022/09/28 01:16:44;;;;;;;9.15;8.55;;;;;;;;;;4976542;28;20050;-62
2022/09/28 01:19:09;;;;;;;8.70;8.10;;;;;;;;;;4973668;28;20639;-62
2022/09/28 01:21:54;;;;;;;9.57;8.98;;;;;;;;;;4974370;28;20041;-64
2022/09/28 01:24:29;;;;;;;9.23;8.63;;;;;;;;;;4975996;28;20102;-64
2022/09/28 01:27:01;;;;;;;9.63;8.93;;;;;;;;;;4977837;28;20409;-64
2022/09/28 01:29:41;;;;;;;8.75;8.15;;;;;;;;;;4973987;28;20468;-66
2022/09/28 01:32:12;;;;;;;8.55;8.05;;;;;;;;;;4976442;28;20076;-63
2022/09/28 01:35:04;;;;;;;8.95;8.35;;;;;;;;;;4979015;28;20275;-64
2022/09/28 01:37:43;;;;;;;8.50;8.00;;;;;;;;;;4974953;28;20034;-61
2022/09/28 01:40:10;;;;;;;8.00;7.47;;;;;;;;;;4975469;28;20122;-61
2022/09/28 01:42:38;;;;;;;8.68;8.07;;;;;;;;;;4974996;28;20027;-61
2022/09/28 01:45:10;;;;;;;9.02;8.43;;;;;;;;;;4978331;28;20038;-61
2022/09/28 01:47:38;;;;;;;8.57;8.02;;;;;;;;;;4970724;28;20027;-62
2022/09/28 01:50:11;;;;;;;8.90;8.30;;;;;;;;;;4975780;28;20546;-62
2022/09/28 01:52:52;;;;;;;9.07;8.48;;;;;;;;;;4973434;28;20030;-61
2022/09/28 01:55:23;;;;;;;9.15;8.55;;;;;;;;;;4966818;28;20345;-62
2022/09/28 01:57:58;;;;;;;8.60;8.00;;;;;;;;;;4973606;28;20097;-60
2022/09/28 02:00:24;;;;;;;8.52;8.02;;;;;;;;;;4972287;28;20133;-60
2022/09/28 02:02:58;;;;;;;8.77;8.18;;;;;;;;;;4974998;28;20471;-63
2022/09/28 02:05:28;;;;;;;8.63;8.02;;;;;;;;;;4978077;28;20050;-61
2022/09/28 02:08:08;;;;;;;8.10;7.60;;;;;;;;;;4977490;28;20031;-61
2022/09/28 02:10:51;;;;;;;8.45;7.93;;;;;;;;;;4975779;28;20235;-62
2022/09/28 02:13:22;;;;;;;9.88;9.18;;;;;;;;;;4974731;28;20042;-62
2022/09/28 02:15:57;;;;;;;8.65;8.05;;;;;;;;;;4976322;28;20054;-62
2022/09/28 02:18:23;;;;;;;9.40;8.75;;;;;;;;;;4975523;28;20066;-61
2022/09/28 02:21:00;;;;;;;9.52;8.82;;;;;;;;;;4975777;28;20488;-61
2022/09/28 02:23:28;;;;;;;8.10;7.60;;;;;;;;;;4975754;28;20116;-61
2022/09/28 02:26:04;;;;;;;8.40;7.80;;;;;;;;;;4976158;28;20041;-61
2022/09/28 02:28:29;;;;;;;7.97;7.40;;;;;;;;;;4974314;28;20488;-61
2022/09/28 02:30:55;;;;;;;8.15;7.65;;;;;;;;;;4975426;28;20030;-61
2022/09/28 02:33:35;;;;;;;8.65;8.05;;;;;;;;;;4978585;28;20049;-61
2022/09/28 02:36:02;;;;;;;8.63;8.02;;;;;;;;;;4979628;28;20034;-61
2022/09/28 02:38:28;;;;;;;7.75;7.25;;;;;;;;;;4979514;28;20132;-61
2022/09/28 02:41:38;;;;;;;8.32;7.82;;;;;;;;;;4974797;28;20081;-61
2022/09/28 02:44:25;;;;;;;7.72;7.22;;;;;;;;;;4979548;28;20043;-60
2022/09/28 02:47:06;;;;;;;7.28;6.78;;;;;;;;;;4978768;28;20229;-60
2022/09/28 02:49:47;;;;;;;7.65;7.15;;;;;;;;;;4979178;28;20034;-63
2022/09/28 02:52:34;;;;;;;7.57;7.07;;;;;;;;;;4976990;28;20052;-62
2022/09/28 02:55:05;;;;;;;8.20;7.70;;;;;;;;;;4980096;28;20137;-62
2022/09/28 02:57:33;;;;;;;;;;;;;;;;;;4980967;28;20096;-62
2022/09/28 03:00:10;;;;;;;7.70;7.20;;;;;;;;;;4980348;28;19932;-62
2022/09/28 03:02:47;;;;;;;8.57;8.05;;;;;;;;;;4975668;28;20473;-62
2022/09/28 03:05:35;;;;;;;8.20;7.70;;;;;;;;;;4979008;28;20038;-62
2022/09/28 03:08:05;;;;;;;8.82;8.23;;;;;;;;;;4991098;28;20354;-62
2022/09/28 03:10:46;;;;;;;8.30;7.80;;;;;;;;;;4982115;28;20232;-62
2022/09/28 03:13:13;;;;;;;9.25;8.35;;;;;;;;;;4976878;28;20190;-62
2022/09/28 03:15:39;;;;;;;8.23;7.72;;;;;;;;;;4975905;28;20066;-62
2022/09/28 03:18:04;;;;;;;7.70;7.20;;;;;;;;;;4977253;28;20237;-62
2022/09/28 03:20:31;;;;;;;8.15;7.65;;;;;;;;;;4977580;28;20530;-62
2022/09/28 03:22:56;;;;;;;8.70;8.00;;;;;;;;;;4978636;28;20038;-62
2022/09/28 03:25:22;;;;;;;8.07;7.57;;;;;;;;;;4979064;28;20061;-62
2022/09/28 03:27:47;;;;;;;8.25;7.75;;;;;;;;;;4976782;28;20121;-63
2022/09/28 03:30:13;;;;;;;8.77;8.18;;;;;;;;;;4977054;28;20456;-63
2022/09/28 03:32:39;;;;;;;7.85;7.35;;;;;;;;;;4976833;28;20105;-63
2022/09/28 03:35:05;;;;;;;7.40;6.90;;;;;;;;;;4974753;28;20034;-63
2022/09/28 03:37:31;;;;;;;7.40;6.90;;;;;;;;;;4976908;28;20030;-63
2022/09/28 03:39:56;;;;;;;7.65;7.15;;;;;;;;;;4977766;28;20038;-62
2022/09/28 03:42:21;;;;;;;7.93;7.43;;;;;;;;;;4979731;28;20054;-62
2022/09/28 03:44:47;;;;;;;7.30;6.80;;;;;;;;;;4975795;28;20042;-62
2022/09/28 03:47:13;;;;;;;7.90;7.40;;;;;;;;;;4974427;28;20055;-62
2022/09/28 03:49:38;;;;;;;7.00;6.50;;;;;;;;;;4978572;28;20027;-62
2022/09/28 03:52:03;;;;;;;7.47;6.97;;;;;;;;;;4977643;28;20026;-63
2022/09/28 03:54:29;;;;;;;7.63;7.13;;;;;;;;;;4976613;28;20042;-63
2022/09/28 03:56:54;;;;;;;6.95;6.45;;;;;;;;;;4977061;28;20045;-63
2022/09/28 03:59:20;;;;;;;7.35;6.85;;;;;;;;;;4977428;28;20110;-63
2022/09/28 04:01:48;;;;;;;8.23;7.18;;;;;;;;;;4977779;28;20342;-63
2022/09/28 04:04:13;;;;;;;7.18;6.68;;;;;;;;;;4981586;28;20038;-63
2022/09/28 04:06:39;;;;;;;7.32;6.82;;;;;;;;;;4978112;28;20026;-62
2022/09/28 04:09:04;;;;;;;7.75;7.25;;;;;;;;;;4974920;28;20043;-62
2022/09/28 04:11:30;;;;;;;6.90;6.40;;;;;;;;;;4978858;28;20099;-62
2022/09/28 04:13:55;;;;;;;7.40;6.90;;;;;;;;;;4978114;28;20489;-63
2022/09/28 04:16:20;;;;;;;7.88;7.38;;;;;;;;;;4975972;28;20038;-64
2022/09/28 04:18:47;;;;;;;7.75;7.25;;;;;;;;;;4978440;28;20057;-63
2022/09/28 04:21:15;;;;;;;7.60;7.10;;;;;;;;;;4976780;28;20093;-62
2022/09/28 04:23:40;;;;;;;7.88;7.38;;;;;;;;;;4979560;28;20030;-62
2022/09/28 04:26:15;;;;;;;8.75;8.15;;;;;;;;;;4977214;28;20041;-62
2022/09/28 04:31:26;;;;;;;8.00;7.50;;;;;;;;;;4979544;28;20037;-64
2022/09/28 04:33:52;;;;;;;8.90;8.30;;;;;;;;;;4978315;28;20026;-64
2022/09/28 04:36:18;;;;;;;8.32;7.82;;;;;;;;;;4973925;28;20034;-65
2022/09/28 04:38:44;;;;;;;7.80;7.30;;;;;;;;;;4979359;28;20030;-67
2022/09/28 04:46:07;;;;;;;8.65;8.05;;;;;;;;;;4935971;28;20095;-64
2022/09/28 05:03:52;;;;;;;7.40;6.90;;;;;;;;;;4885846;29;20181;-63
2022/09/28 05:06:18;;;;;;;7.55;7.05;;;;;;;;;;4895348;29;20056;-64
2022/09/28 05:08:45;;;;;;;8.45;7.95;;;;;;;;;;4953583;28;20038;-64
2022/09/28 05:11:12;;;;;;;9.13;8.52;;;;;;;;;;4978811;28;20046;-63
2022/09/28 05:13:44;;;;;;;8.65;8.13;;;;;;;;;;4979290;28;20161;-64
2022/09/28 05:16:11;;;;;;;9.55;8.95;;;;;;;;;;4974242;28;20057;-64
2022/09/28 05:18:37;;;;;;;9.20;8.60;;;;;;;;;;4977462;28;20039;-64
2022/09/28 05:21:03;;;;;;;10.15;9.48;;;;;;;;;;4975296;28;20034;-66
2022/09/28 05:23:29;;;;;;;8.75;8.15;;;;;;;;;;4977892;28;20102;-65
2022/09/28 05:25:54;;;;;;;8.52;7.93;;;;;;;;;;4980640;28;20429;-64
2022/09/28 05:28:25;;;;;;;8.43;7.93;;;;;;;;;;4975016;28;20061;-64
2022/09/28 05:30:51;;;;;;;8.25;7.72;;;;;;;;;;4974340;28;20053;-64
2022/09/28 05:33:16;;;;;;;8.57;7.97;;;;;;;;;;4975718;28;20493;-64
2022/09/28 05:35:41;;;;;;;8.25;7.63;;;;;;;;;;4977883;28;20026;-64
2022/09/28 05:38:07;;;;;;;6.95;6.47;;;;;;;;;;4978449;28;20039;-64
2022/09/28 05:40:32;;;;;;;7.32;6.82;;;;;;;;;;4976183;28;20057;-64
2022/09/28 05:43:01;;;;;;;7.03;6.53;;;;;;;;;;4973372;28;20450;-64
2022/09/28 05:45:28;;;;;;;7.63;7.13;;;;;;;;;;4976867;28;20053;-64
2022/09/28 05:47:53;;;;;;;7.38;6.88;;;;;;;;;;4975391;28;20034;-64
2022/09/28 05:50:18;;;;;;;7.18;6.68;;;;;;;;;;4975912;28;20049;-65
2022/09/28 05:52:44;;;;;;;7.15;6.65;;;;;;;;;;4978384;28;20038;-64
2022/09/28 05:55:10;;;;;;;7.28;6.78;;;;;;;;;;4972739;28;20134;-64
2022/09/28 05:57:35;;;;;;;7.13;6.63;;;;;;;;;;4977170;28;20395;-65
2022/09/28 06:00:08;;;;;;;8.02;7.53;;;;;;;;;;4972928;28;20475;-62
2022/09/28 06:02:34;;;;;;;7.47;6.97;;;;;;;;;;4974547;28;20041;-61
2022/09/28 06:05:00;;;;;;;7.80;7.20;;;;;;;;;;4977765;28;20427;-61
2022/09/28 06:07:25;;;;;;;7.57;7.07;;;;;;;;;;4980536;28;20401;-62
2022/09/28 06:09:50;;;;;;;7.20;6.70;;;;;;;;;;4978774;28;20432;-62
2022/09/28 06:12:16;;;;;;;6.65;6.20;;;;;;;;;;4979323;28;20449;-62
2022/09/28 06:14:41;;;;;;;6.93;6.43;;;;;;;;;;4979927;28;20427;-61
2022/09/28 06:17:06;;;;;;;7.25;6.75;;;;;;;;;;4980740;28;20150;-62
2022/09/28 06:19:32;;;;;;;7.70;7.20;;;;;;;;;;4979100;28;20022;-61
2022/09/28 06:21:57;;;;;;;8.05;7.50;;;;;;;;;;4979240;28;20467;-61
2022/09/28 06:24:23;;;;;;;7.78;7.28;;;;;;;;;;4979006;28;20585;-61
2022/09/28 06:26:48;;;;;;;8.20;7.70;;;;;;;;;;4977523;28;20092;-62
2022/09/28 06:29:17;;;;;;;8.45;7.95;;;;;;;;;;4981223;28;20030;-61
2022/09/28 06:31:44;;;;;;;8.50;8.00;;;;;;;;;;4994453;28;20023;-62
2022/09/28 06:34:10;;;;;;;9.88;9.27;;;;;;;;;;4978641;28;20023;-62
2022/09/28 06:36:35;;;;;;;10.15;9.55;;;;;;;;;;4977457;28;20030;-62
2022/09/28 06:39:01;;;;;;;9.80;9.20;;;;;;;;;;4977459;28;20340;-62
2022/09/28 06:41:26;;;;;;;9.50;8.90;;;;;;;;;;4979580;28;20037;-61
2022/09/28 06:43:52;;;;;;;9.60;9.00;;;;;;;;;;4977666;28;20089;-61
2022/09/28 06:46:17;;;;;;;9.52;8.93;;;;;;;;;;4975119;28;20132;-62
2022/09/28 06:48:43;;;;;;;10.15;9.45;;;;;;;;;;4980080;28;20031;-61
2022/09/28 06:51:09;;;;;;;9.32;8.73;;;;;;;;;;4977684;28;20026;-62
2022/09/28 06:53:34;;;;;;;9.35;8.75;;;;;;;;;;4978857;28;20101;-62
2022/09/28 06:56:01;;;;;;;9.35;8.75;;;;;;;;;;4979149;28;20038;-61
2022/09/28 06:58:27;;;;;;;8.57;8.07;;;;;;;;;;4978262;28;20389;-61
2022/09/28 07:00:58;;;;;;;9.13;8.52;;;;;;;;;;4979434;28;20034;-61
2022/09/28 07:03:24;;;;;;;8.05;7.55;;;;;;;;;;4976940;28;20647;-62
2022/09/28 07:05:52;;;;;;;9.48;8.70;;;;;;;;;;4982139;28;20039;-63
2022/09/28 07:08:19;;;;;;;8.18;7.57;;;;;;;;;;4994032;28;20026;-62
2022/09/28 07:10:48;;;;;;;7.30;6.80;;;;;;;;;;4981020;28;20042;-63
2022/09/28 07:13:15;;;;;;;6.90;6.40;;;;;;;;;;4995337;28;20035;-62
2022/09/28 07:15:42;;;;;;;6.88;6.38;;;;;;;;;;4982001;28;20030;-62
2022/09/28 07:18:08;;;;;;;7.13;6.63;;;;;;;;;;4979516;28;20097;-61
2022/09/28 07:20:35;;;;;;;7.18;6.68;;;;;;;;;;4978969;28;20658;-61
2022/09/28 07:23:02;;;;;;;6.78;6.28;;;;;;;;;;4980059;28;20457;-62
2022/09/28 07:25:29;;;;;;;6.82;6.32;;;;;;;;;;4979211;28;20401;-62
2022/09/28 07:28:01;;;;;;;7.22;6.72;;;;;;;;;;4976466;28;20031;-61
2022/09/28 07:30:31;;;;;;;7.13;6.63;;;;;;;;;;4979089;28;20121;-61
2022/09/28 07:32:57;;;;;;;6.80;6.30;;;;;;;;;;4975910;28;20473;-62
2022/09/28 07:35:22;;;;;;;6.97;6.47;;;;;;;;;;4978605;28;20279;-61
2022/09/28 07:37:48;;;;;;;7.25;6.75;;;;;;;;;;4979187;28;20027;-62
2022/09/28 07:43:05;;;;;;;6.32;5.93;;;;;;;;;;4979186;28;20061;-62
2022/09/28 07:45:35;;;;;;;5.95;5.55;;;;;;;;;;4979428;28;20058;-62
2022/09/28 07:48:01;;;;;;;5.30;4.90;;;;;;;;;;4979574;28;20384;-62
2022/09/28 07:50:27;;;;;;;5.30;4.90;;;;;;;;;;4979312;28;21127;-62
2022/09/28 07:52:54;;;;;;;5.95;5.55;;;;;;;;;;4977844;28;20125;-61
2022/09/28 07:55:20;;;;;;;6.05;5.65;;;;;;;;;;4978235;28;20457;-61
2022/09/28 07:57:47;;;;;;;6.10;5.70;;;;;;;;;;4981041;28;20305;-61
2022/09/28 08:00:13;;;;;;;5.65;5.25;;;;;;;;;;4977000;28;20026;-61
2022/09/28 08:02:38;;;;;;;5.60;5.20;;;;;;;;;;4978327;28;20271;-62
2022/09/28 08:05:04;;;;;;;6.85;6.35;;;;;;;;;;4980943;28;20333;-61
2022/09/28 08:07:29;;;;;;;5.57;5.18;;;;;;;;;;4979503;28;20035;-61
2022/09/28 08:09:54;;;;;;;6.53;6.10;;;;;;;;;;4978731;28;20026;-62
2022/09/28 08:12:20;;;;;;;6.07;5.68;;;;;;;;;;4978622;28;20061;-61
2022/09/28 08:14:46;;;;;;;5.60;5.20;;;;;;;;;;4979712;28;20045;-62
2022/09/28 08:17:12;;;;;;;6.10;5.70;;;;;;;;;;4980276;28;20035;-62
2022/09/28 08:22:22;;;;;;;5.85;5.45;;;;;;;;;;4978921;28;20041;-62
2022/09/28 08:24:47;;;;;;;5.70;5.30;;;;;;;;;;4978424;28;20105;-62
2022/09/28 08:27:15;;;;;;;5.78;5.38;;;;;;;;;;4980411;28;20125;-62
2022/09/28 08:29:41;;;;;;;6.25;5.85;;;;;;;;;;4978469;28;20026;-62
2022/09/28 08:32:08;;;;;;;6.00;5.60;;;;;;;;;;4979160;28;20114;-62
2022/09/28 08:34:38;;;;;;;5.60;5.20;;;;;;;;;;4977131;28;20030;-63
2022/09/28 08:37:04;;;;;;;5.97;5.57;;;;;;;;;;4976613;28;20047;-63
2022/09/28 08:39:30;;;;;;;5.95;5.55;;;;;;;;;;4975612;28;20110;-63
2022/09/28 08:42:07;;;;;;;6.35;5.95;;;;;;;;;;4979541;28;20139;-63
2022/09/28 08:44:46;;;;;;;5.45;5.05;;;;;;;;;;4976848;28;20492;-63
2022/09/28 08:50:04;;;;;;;5.90;5.50;;;;;;;;;;4993501;28;20038;-63
2022/09/28 08:52:34;;;;;;;6.20;5.80;;;;;;;;;;4977654;28;20026;-63
2022/09/28 08:55:14;;;;;;;6.30;5.90;;;;;;;;;;4979737;28;20031;-64
2022/09/28 08:57:47;;;;;;;6.13;5.72;;;;;;;;;;4976132;28;20298;-63
2022/09/28 09:00:31;;;;;;;5.90;5.50;;;;;;;;;;4993693;28;20027;-63
2022/09/28 09:02:57;;;;;;;5.70;5.30;;;;;;;;;;4989372;28;20042;-63
2022/09/28 09:05:42;;;;;;;5.75;5.35;;;;;;;;;;4976298;28;20104;-64
2022/09/28 09:08:33;;;;;;;5.72;5.32;;;;;;;;;;4979226;28;20479;-63
2022/09/28 09:11:08;;;;;;;5.40;5.00;;;;;;;;;;4979756;28;20031;-64
2022/09/28 09:13:46;;;;;;;5.25;4.85;;;;;;;;;;4976380;28;20049;-64
2022/09/28 09:16:50;;;;;;;5.45;5.05;;;;;;;;;;4976273;28;20166;-63
2022/09/28 09:19:54;;;;;;;5.68;5.28;;;;;;;;;;4980212;28;20373;-64
2022/09/28 09:22:30;;;;;;;5.50;5.10;;;;;;;;;;4970820;28;20062;-64
2022/09/28 09:25:14;;;;;;;6.13;5.63;;;;;;;;;;4978975;28;20042;-63
2022/09/28 09:27:44;;;;;;;6.03;5.63;;;;;;;;;;4976204;28;20097;-63
2022/09/28 09:30:20;;;;;;;6.05;5.55;;;;;;;;;;4980257;28;20162;-64
2022/09/28 09:33:05;;;;;;;5.68;5.28;;;;;;;;;;4977268;28;20671;-64
2022/09/28 09:35:48;;;;;;;6.28;5.88;;;;;;;;;;4975977;28;20041;-64
2022/09/28 09:38:40;;;;;;;6.18;5.72;;;;;;;;;;4974242;28;20046;-64
2022/09/28 09:41:31;;;;;;;6.28;5.88;;;;;;;;;;4978588;28;20053;-64
2022/09/28 09:44:19;;;;;;;5.40;5.00;;;;;;;;;;4976695;28;20070;-64
2022/09/28 09:47:03;;;;;;;6.25;5.85;;;;;;;;;;4979383;28;20031;-64
2022/09/28 09:49:54;;;;;;;6.25;5.85;;;;;;;;;;4978870;28;20044;-64
2022/09/28 09:52:43;;;;;;;5.35;4.95;;;;;;;;;;4975577;28;20038;-64
2022/09/28 09:55:09;;;;;;;5.40;5.00;;;;;;;;;;4973624;28;20042;-64
2022/09/28 09:57:45;;;;;;;6.30;5.90;;;;;;;;;;4973135;28;20050;-64
2022/09/28 10:00:13;;;;;;;5.80;5.40;;;;;;;;;;4978607;28;20037;-63
2022/09/28 10:02:38;;;;;;;5.53;5.13;;;;;;;;;;4977975;28;20087;-63
2022/09/28 10:05:13;;;;;;;5.93;5.53;;;;;;;;;;4974495;28;20057;-63
2022/09/28 10:08:08;;;;;;;5.40;5.00;;;;;;;;;;4974635;28;20629;-64
2022/09/28 10:10:35;;;;;;;6.03;5.63;;;;;;;;;;4957103;28;20042;-64
2022/09/28 10:13:01;;;;;;;6.13;5.72;;;;;;;;;;4976079;28;20121;-64
2022/09/28 10:15:35;;;;;;;5.85;5.45;;;;;;;;;;4981373;28;20129;-65
2022/09/28 10:18:05;;;;;;;5.53;5.13;;;;;;;;;;4976158;28;20547;-64
2022/09/28 10:20:35;;;;;;;5.40;5.00;;;;;;;;;;4980489;28;20052;-64
2022/09/28 10:23:05;;;;;;;5.55;5.15;;;;;;;;;;4976801;28;20093;-64
2022/09/28 10:25:35;;;;;;;5.47;5.07;;;;;;;;;;4974990;28;20041;-64
2022/09/28 10:28:05;;;;;;;5.72;5.32;;;;;;;;;;4976458;28;20217;-65
2022/09/28 10:30:40;;;;;;;5.70;5.30;;;;;;;;;;4976816;28;20116;-64
2022/09/28 10:33:27;;;;;;;5.78;5.38;;;;;;;;;;4974516;28;20074;-65
2022/09/28 10:35:53;;;;;;;5.57;5.18;;;;;;;;;;4974836;28;20093;-65
2022/09/28 10:38:19;;;;;;;5.70;5.30;;;;;;;;;;4976133;28;20034;-64
2022/09/28 10:40:49;;;;;;;5.68;5.28;;;;;;;;;;4978031;28;20022;-65
2022/09/28 10:43:22;;;;;;;6.00;5.60;;;;;;;;;;4974219;28;20019;-65
2022/09/28 10:45:59;;;;;;;6.00;5.60;;;;;;;;;;4975453;28;20081;-65
2022/09/28 10:48:26;;;;;;;5.35;4.95;;;;;;;;;;4974957;28;20020;-65
2022/09/28 10:51:06;;;;;;;6.78;5.65;;;;;;;;;;4975478;28;20034;-65
2022/09/28 10:53:33;;;;;;;5.85;5.45;;;;;;;;;;4980927;28;20102;-65
2022/09/28 10:56:02;;;;;;;6.03;5.53;;;;;;;;;;4978845;28;20134;-64
2022/09/28 10:58:29;;;;;;;6.43;6.00;;;;;;;;;;4980217;28;20050;-67
2022/09/28 11:01:01;;;;;;;6.28;5.88;;;;;;;;;;4981209;28;20027;-66
2022/09/28 11:03:28;;;;;;;6.57;6.13;;;;;;;;;;4982609;28;20841;-66
2022/09/28 11:05:57;;;;;;;6.45;5.95;;;;;;;;;;4982827;28;20026;-66
2022/09/28 11:08:29;;;;;;;7.00;6.50;;;;;;;;;;4979530;28;20069;-65
2022/09/28 11:11:21;;;;;;;6.68;6.18;;;;;;;;;;4978991;28;20122;-64
2022/09/28 11:13:56;;;;;;;7.28;6.78;;;;;;;;;;4980099;28;20055;-65
2022/09/28 11:16:23;;;;;;;6.20;5.80;;;;;;;;;;4978490;28;20037;-65
2022/09/28 11:18:49;;;;;;;7.47;6.97;;;;;;;;;;4980796;28;20073;-65
2022/09/28 11:21:20;;;;;;;7.03;6.53;;;;;;;;;;4980925;28;20073;-65
2022/09/28 11:24:16;;;;;;;6.93;6.43;;;;;;;;;;4979951;28;20041;-66
2022/09/28 11:26:45;;;;;;;6.40;6.00;;;;;;;;;;4996741;28;20352;-66
2022/09/28 11:29:31;;;;;;;7.18;6.68;;;;;;;;;;4985166;28;20039;-66
2022/09/28 11:32:03;;;;;;;7.32;6.82;;;;;;;;;;4981243;28;20582;-66
2022/09/28 11:34:35;;;;;;;6.80;6.30;;;;;;;;;;4978967;28;20121;-65
2022/09/28 11:37:21;;;;;;;6.80;6.30;;;;;;;;;;4977716;28;20044;-66
2022/09/28 11:40:17;;;;;;;7.40;6.90;;;;;;;;;;4979218;28;20030;-66
2022/09/28 11:42:53;;;;;;;6.85;6.35;;;;;;;;;;4979898;28;20065;-67
2022/09/28 11:45:21;;;;;;;6.75;6.25;;;;;;;;;;4982737;28;20026;-66
2022/09/28 11:47:56;;;;;;;7.10;6.60;;;;;;;;;;4978541;28;20037;-65
2022/09/28 11:50:57;;;;;;;7.38;6.88;;;;;;;;;;4980918;28;20030;-65
2022/09/28 11:53:32;;;;;;;8.45;7.90;;;;;;;;;;4970411;28;20065;-66
2022/09/28 11:56:17;;;;;;;8.90;8.32;;;;;;;;;;4985497;28;20049;-67
2022/09/28 11:58:56;;;;;;;10.85;10.20;;;;;;;;;;4975541;28;20101;-65
2022/09/28 12:01:28;;;;;;;12.15;11.45;;;;;;;;;;4979673;28;20084;-66
2022/09/28 12:04:05;;;;;;;12.63;11.93;;;;;;;;;;4985235;28;20026;-66
2022/09/28 12:06:37;;;;;;;15.27;14.43;;;;;;;;;;4980439;28;20062;-65
2022/09/28 12:09:09;;;;;;;16.85;15.95;;;;;;;;;;4979807;28;20057;-65
2022/09/28 12:11:42;;;;;;;17.55;16.55;;;;;;;;;;4980198;28;20116;-65
2022/09/28 12:14:18;;;;;;;16.52;15.63;;;;;;;;;;4981320;28;20034;-66
2022/09/28 12:16:50;;;;;;;12.18;11.48;;;;;;;;;;4978975;28;20937;-65
2022/09/28 12:19:41;;;;;;;17.70;16.70;;;;;;;;;;4985343;28;20035;-65
2022/09/28 12:22:28;;;;;;;10.60;10.00;;;;;;;;;;4980932;28;20072;-66
2022/09/28 12:24:56;;;;;;;13.27;12.45;;;;;;;;;;4982771;28;20117;-65
2022/09/28 12:27:46;;;;;;;19.00;18.00;;;;;;;;;;4981019;28;20113;-65
2022/09/28 12:30:14;;;;;;;15.85;14.95;;;;;;;;;;4981300;28;20042;-65
2022/09/28 12:32:51;;;;;;;15.35;14.45;;;;;;;;;;4979385;28;20041;-65
2022/09/28 12:35:23;;;;;;;14.10;13.30;;;;;;;;;;4981262;28;20505;-65
2022/09/28 12:37:51;;;;;;;17.73;16.73;;;;;;;;;;4979762;28;20101;-64
2022/09/28 12:40:36;;;;;;;13.13;12.35;;;;;;;;;;4976757;28;20038;-64
2022/09/28 12:43:32;;;;;;;13.15;12.35;;;;;;;;;;4978769;28;20045;-65
2022/09/28 12:46:16;;;;;;;12.10;11.40;;;;;;;;;;4978784;28;20113;-64
2022/09/28 12:49:02;;;;;;;13.43;12.63;;;;;;;;;;4991411;28;20037;-67
2022/09/28 12:51:42;;;;;;;11.60;10.80;;;;;;;;;;4979989;28;20027;-65
2022/09/28 12:54:26;;;;;;;10.35;9.73;;;;;;;;;;4980256;28;20050;-66
2022/09/28 12:57:23;;;;;;;10.05;9.45;;;;;;;;;;4981071;28;20396;-64
2022/09/28 13:00:15;;;;;;;9.18;8.57;;;;;;;;;;4979394;28;20074;-63
2022/09/28 13:03:12;;;;;;;9.13;8.52;;;;;;;;;;4977348;28;20064;-63
2022/09/28 13:05:40;;;;;;;8.25;7.75;;;;;;;;;;4976595;28;20031;-63
2022/09/28 13:08:27;;;;;;;7.60;7.10;;;;;;;;;;4979064;28;20480;-63
2022/09/28 13:11:24;;;;;;;8.73;8.18;;;;;;;;;;4979410;28;20114;-66
2022/09/28 13:14:17;;;;;;;8.30;7.80;;;;;;;;;;4971346;28;20406;-66
2022/09/28 13:16:56;;;;;;;8.50;8.00;;;;;;;;;;4980749;28;20432;-65
2022/09/28 13:19:39;;;;;;;9.63;9.02;;;;;;;;;;4978938;28;20030;-65
2022/09/28 13:22:04;;;;;;;8.55;8.02;;;;;;;;;;4985783;28;20511;-65
2022/09/28 13:24:33;;;;;;;9.20;8.60;;;;;;;;;;4979102;28;20061;-65
2022/09/28 13:27:05;;;;;;;10.55;9.75;;;;;;;;;;4995129;28;20026;-65
2022/09/28 13:29:33;;;;;;;10.85;10.20;;;;;;;;;;4979185;28;20525;-65
2022/09/28 13:32:02;;;;;;;13.35;12.57;;;;;;;;;;4977867;28;20061;-65
2022/09/28 13:34:31;;;;;;;10.27;9.68;;;;;;;;;;4979468;28;20041;-64
2022/09/28 13:37:19;;;;;;;13.38;12.57;;;;;;;;;;4979054;28;20070;-64
2022/09/28 13:39:44;;;;;;;15.23;14.35;;;;;;;;;;4979778;28;20038;-64
2022/09/28 13:42:46;;;;;;;12.30;11.60;;;;;;;;;;4977427;28;20555;-63
2022/09/28 13:45:21;;;;;;;14.75;13.95;;;;;;;;;;4978937;28;20057;-64
2022/09/28 13:47:58;;;;;;;8.52;8.02;;;;;;;;;;4980340;28;20054;-64
2022/09/28 13:50:36;;;;;;;9.70;9.10;;;;;;;;;;4978247;28;20036;-64
2022/09/28 13:53:30;;;;;;;8.98;8.38;;;;;;;;;;4980459;28;20496;-64
2022/09/28 13:56:23;;;;;;;10.27;9.57;;;;;;;;;;4981149;28;20054;-64
2022/09/28 13:58:55;;;;;;;14.07;13.27;;;;;;;;;;4979253;28;20030;-63
2022/09/28 14:01:54;;;;;;;14.20;13.40;;;;;;;;;;4978418;28;20050;-63
2022/09/28 14:04:24;;;;;;;12.73;11.93;;;;;;;;;;4979579;28;20085;-64
2022/09/28 14:07:09;;;;;;;9.35;8.75;;;;;;;;;;4977364;28;20043;-64
2022/09/28 14:09:46;;;;;;;15.10;14.25;;;;;;;;;;4977288;28;20085;-64
2022/09/28 14:12:33;;;;;;;13.35;12.55;;;;;;;;;;4980083;28;20045;-64
2022/09/28 14:14:59;;;;;;;11.18;10.48;;;;;;;;;;4977547;28;20030;-64
2022/09/28 14:17:24;;;;;;;15.52;14.63;;;;;;;;;;4979194;28;20031;-64
2022/09/28 14:19:55;;;;;;;14.73;13.63;;;;;;;;;;4976615;28;20053;-65
2022/09/28 14:22:56;;;;;;;16.77;15.87;;;;;;;;;;4979918;28;20097;-64
2022/09/28 14:25:41;;;;;;;14.43;13.52;;;;;;;;;;4979155;28;20084;-64
2022/09/28 14:28:29;;;;;;;11.13;10.43;;;;;;;;;;4984621;28;20035;-64
2022/09/28 14:30:55;;;;;;;14.52;13.73;;;;;;;;;;4984394;28;20134;-64
2022/09/28 14:33:20;;;;;;;16.60;15.70;;;;;;;;;;4983700;28;20092;-64
2022/09/28 14:35:55;;;;;;;14.93;14.10;;;;;;;;;;4980829;28;20461;-63
2022/09/28 14:41:30;;;;;;;11.75;11.05;;;;;;;;;;4983376;28;20121;-63
2022/09/28 14:43:57;;;;;;;13.30;12.50;;;;;;;;;;4981203;28;20201;-64
2022/09/28 14:46:29;;;;;;;22.25;13.13;;;;;;;;;;4985053;28;20030;-64
2022/09/28 14:48:55;;;;;;;12.93;12.18;;;;;;;;;;4982234;28;20037;-64
2022/09/28 14:51:31;;;;;;;11.20;10.50;;;;;;;;;;4985591;28;20022;-64
2022/09/28 14:54:06;;;;;;;11.82;11.13;;;;;;;;;;4982905;28;20073;-63
2022/09/28 14:56:39;;;;;;;14.00;13.20;;;;;;;;;;4984176;28;20030;-64
2022/09/28 14:59:06;;;;;;;11.00;10.30;;;;;;;;;;4980597;28;20349;-64
2022/09/28 15:01:34;;;;;;;13.63;12.82;;;;;;;;;;4977833;28;20027;-64
2022/09/28 15:04:05;;;;;;;11.63;10.93;;;;;;;;;;4988468;28;20107;-64
2022/09/28 15:06:47;;;;;;;9.95;9.35;;;;;;;;;;4976405;28;20286;-64
2022/09/28 15:09:32;;;;;;;11.25;10.55;;;;;;;;;;4979385;28;20034;-64
2022/09/28 15:12:04;;;;;;;12.18;11.48;;;;;;;;;;4980552;28;20052;-64
2022/09/28 15:14:34;;;;;;;10.63;10.02;;;;;;;;;;4977947;28;20096;-65
2022/09/28 15:17:06;;;;;;;11.02;10.35;;;;;;;;;;4978976;28;20034;-64
2022/09/28 15:19:45;;;;;;;9.30;8.70;;;;;;;;;;4981458;28;20110;-64
2022/09/28 15:22:18;;;;;;;9.68;9.07;;;;;;;;;;4979632;28;20298;-64
2022/09/28 15:25:12;;;;;;;12.18;11.48;;;;;;;;;;4979291;28;20051;-64
2022/09/28 15:27:38;;;;;;;11.30;10.50;;;;;;;;;;4980986;28;20034;-64
2022/09/28 15:30:30;;;;;;;9.40;8.70;;;;;;;;;;4982445;28;20038;-64
2022/09/28 15:34:50;;;;;;;8.30;7.80;;;;;;;;;;4978995;28;20041;-64
2022/09/28 15:36:00;;;;;;;8.45;7.95;;;;;;;;;;4981065;28;20038;-64
2022/09/28 15:38:26;;;;;;;8.20;7.70;;;;;;;;;;4978029;28;20479;-64
2022/09/28 15:40:51;;;;;;;8.25;7.75;;;;;;;;;;4982805;28;20035;-64
2022/09/28 15:43:25;;;;;;;11.80;11.10;;;;;;;;;;4981904;28;20036;-65
2022/09/28 15:46:17;;;;;;;9.50;8.90;;;;;;;;;;4980928;28;20034;-64